createdAt,value
2019-03-09T00:01:05.079Z,91.80
2019-03-09T00:03:33.734Z,92.00
2019-03-09T00:06:02.308Z,92.20
2019-03-09T00:08:30.999Z,92.20
2019-03-09T00:10:59.516Z,92.40
2019-03-09T00:13:28.247Z,92.50
2019-03-09T00:15:56.814Z,92.60
2019-03-09T00:18:25.437Z,92.50
2019-03-09T00:20:53.947Z,92.60
2019-03-09T00:23:30.335Z,92.90
2019-03-09T00:26:03.427Z,92.90
2019-03-09T00:28:42.484Z,92.80
2019-03-09T00:31:21.894Z,92.80
2019-03-09T00:33:50.598Z,92.80
2019-03-09T00:36:19.183Z,93.30
2019-03-09T00:38:47.828Z,93.40
2019-03-09T00:41:16.451Z,92.90
2019-03-09T00:43:45.133Z,93.10
2019-03-09T00:46:13.861Z,93.20
2019-03-09T00:48:42.488Z,93.00
2019-03-09T00:51:11.137Z,93.10
2019-03-09T00:53:39.771Z,93.30
2019-03-09T00:56:08.303Z,93.50
2019-03-09T00:58:37.044Z,93.40
2019-03-09T01:01:05.837Z,93.50
2019-03-09T01:03:34.536Z,93.70
2019-03-09T01:06:03.288Z,93.80
2019-03-09T01:08:31.877Z,93.60
2019-03-09T01:11:00.575Z,93.70
2019-03-09T01:13:29.228Z,94.10
2019-03-09T01:15:57.908Z,93.90
2019-03-09T01:18:26.711Z,93.90
2019-03-09T01:20:55.440Z,93.90
2019-03-09T01:23:24.198Z,93.80
2019-03-09T01:25:52.847Z,94.10
2019-03-09T01:28:21.524Z,93.90
2019-03-09T01:30:50.162Z,93.70
2019-03-09T01:33:18.904Z,93.80
2019-03-09T01:35:47.809Z,93.90
2019-03-09T01:38:16.428Z,94.00
2019-03-09T01:40:45.161Z,93.80
2019-03-09T01:43:13.906Z,93.90
2019-03-09T01:45:42.575Z,93.90
2019-03-09T01:48:11.241Z,93.90
2019-03-09T01:50:41.335Z,93.90
2019-03-09T01:53:09.981Z,93.90
2019-03-09T01:55:38.690Z,93.80
2019-03-09T01:58:07.372Z,93.90
2019-03-09T02:00:36.065Z,94.00
2019-03-09T02:03:04.753Z,93.90
2019-03-09T02:05:33.477Z,94.10
2019-03-09T02:08:02.198Z,94.00
2019-03-09T02:10:30.855Z,94.00
2019-03-09T02:12:59.495Z,94.10
2019-03-09T02:15:28.165Z,94.20
2019-03-09T02:17:56.889Z,94.10
2019-03-09T02:20:27.283Z,94.30
2019-03-09T02:22:55.913Z,94.30
2019-03-09T02:25:26.103Z,94.10
2019-03-09T02:27:54.743Z,94.10
2019-03-09T02:30:23.368Z,94.20
2019-03-09T02:32:51.946Z,94.10
2019-03-09T02:35:20.594Z,94.00
2019-03-09T02:37:50.556Z,94.10
2019-03-09T02:40:22.963Z,94.10
2019-03-09T02:42:52.567Z,94.20
2019-03-09T02:45:25.464Z,94.20
2019-03-09T02:47:54.059Z,94.20
2019-03-09T02:50:22.630Z,94.30
2019-03-09T02:52:51.211Z,94.20
2019-03-09T02:55:19.833Z,94.30
2019-03-09T02:57:48.893Z,94.20
2019-03-09T03:00:19.699Z,94.20
2019-03-09T03:02:58.854Z,94.20
2019-03-09T03:05:27.525Z,94.20
2019-03-09T03:07:56.157Z,94.20
2019-03-09T03:10:24.768Z,94.30
2019-03-09T03:12:53.494Z,94.20
2019-03-09T03:15:33.194Z,94.20
2019-03-09T03:18:01.893Z,94.10
2019-03-09T03:20:30.592Z,94.10
2019-03-09T03:22:59.231Z,94.10
2019-03-09T03:25:29.451Z,94.10
2019-03-09T03:27:58.090Z,94.10
2019-03-09T03:30:26.889Z,94.10
2019-03-09T03:32:57.148Z,94.10
2019-03-09T03:35:25.753Z,94.10
2019-03-09T03:37:54.462Z,94.00
2019-03-09T03:40:23.125Z,93.80
2019-03-09T03:42:52.216Z,93.80
2019-03-09T03:45:21.008Z,93.80
2019-03-09T03:47:49.623Z,93.70
2019-03-09T03:50:18.178Z,93.60
2019-03-09T03:52:46.776Z,93.50
2019-03-09T03:55:15.373Z,93.50
2019-03-09T03:57:44.099Z,93.40
2019-03-09T04:00:14.819Z,93.20
2019-03-09T04:02:43.519Z,93.20
2019-03-09T04:05:12.233Z,93.20
2019-03-09T04:07:41.516Z,93.10
2019-03-09T04:10:12.567Z,92.80
2019-03-09T04:12:42.337Z,92.40
2019-03-09T04:15:11.351Z,92.40
2019-03-09T04:17:39.948Z,92.50
2019-03-09T04:20:13.489Z,92.60
2019-03-09T04:22:42.097Z,92.70
2019-03-09T04:25:12.416Z,92.60
2019-03-09T04:27:41.084Z,92.70
2019-03-09T04:30:11.376Z,93.00
2019-03-09T04:32:40.032Z,92.70
2019-03-09T04:35:08.734Z,92.80
2019-03-09T04:37:37.426Z,92.90
2019-03-09T04:40:11.245Z,92.70
2019-03-09T04:42:39.856Z,92.70
2019-03-09T04:45:10.969Z,92.60
2019-03-09T04:47:39.746Z,92.50
2019-03-09T04:50:11.102Z,92.30
2019-03-09T04:52:40.020Z,92.20
2019-03-09T04:55:09.575Z,92.20
2019-03-09T04:57:38.162Z,92.10
2019-03-09T05:00:12.205Z,92.10
2019-03-09T05:02:39.982Z,91.90
2019-03-09T05:05:11.050Z,91.70
2019-03-09T05:07:45.422Z,91.80
2019-03-09T05:10:22.365Z,91.70
2019-03-09T05:12:57.715Z,91.70
2019-03-09T05:15:26.451Z,91.50
2019-03-09T05:17:55.101Z,91.60
2019-03-09T05:20:23.625Z,91.50
2019-03-09T05:22:52.096Z,91.30
2019-03-09T05:25:20.581Z,91.30
2019-03-09T05:27:49.213Z,91.30
2019-03-09T05:30:36.636Z,91.30
2019-03-09T05:33:05.160Z,91.30
2019-03-09T05:35:33.769Z,91.30
2019-03-09T05:38:02.343Z,91.30
2019-03-09T05:40:30.873Z,90.90
2019-03-09T05:42:59.821Z,91.10
2019-03-09T05:45:28.313Z,91.10
2019-03-09T05:47:56.840Z,91.20
2019-03-09T05:50:25.335Z,91.40
2019-03-09T05:53:11.338Z,91.40
2019-03-09T05:55:39.917Z,91.30
2019-03-09T05:58:08.400Z,91.30
2019-03-09T06:00:38.539Z,91.40
2019-03-09T06:03:07.035Z,91.40
2019-03-09T06:05:37.307Z,91.40
2019-03-09T06:08:06.443Z,91.30
2019-03-09T06:10:34.985Z,91.40
2019-03-09T06:13:03.575Z,91.40
2019-03-09T06:15:32.121Z,91.40
2019-03-09T06:18:00.600Z,91.30
2019-03-09T06:20:29.186Z,91.30
2019-03-09T06:22:57.721Z,91.40
2019-03-09T06:25:26.162Z,91.30
2019-03-09T06:27:54.689Z,91.40
2019-03-09T06:30:23.186Z,91.40
2019-03-09T06:33:17.084Z,91.10
2019-03-09T06:35:50.659Z,91.20
2019-03-09T06:38:42.695Z,91.00
2019-03-09T06:41:23.316Z,90.90
2019-03-09T06:43:51.806Z,90.90
2019-03-09T06:46:20.310Z,90.80
2019-03-09T06:48:48.996Z,90.90
2019-03-09T06:51:17.494Z,90.90
2019-03-09T06:53:46.023Z,90.60
2019-03-09T06:56:14.603Z,90.50
2019-03-09T06:58:43.050Z,90.40
2019-03-09T07:01:16.992Z,90.60
2019-03-09T07:03:45.562Z,90.80
2019-03-09T07:06:14.065Z,90.70
2019-03-09T07:08:42.620Z,90.60
2019-03-09T07:11:11.148Z,90.80
2019-03-09T07:13:40.396Z,90.60
2019-03-09T07:16:08.864Z,90.50
2019-03-09T07:18:38.882Z,90.50
2019-03-09T07:21:07.422Z,90.50
2019-03-09T07:23:36.014Z,90.50
2019-03-09T07:26:04.624Z,90.40
2019-03-09T07:28:33.094Z,90.50
2019-03-09T07:31:01.961Z,90.50
2019-03-09T07:33:30.468Z,90.30
2019-03-09T07:35:59.291Z,90.10
2019-03-09T07:38:27.741Z,90.30
2019-03-09T07:40:56.403Z,90.20
2019-03-09T07:43:25.243Z,90.20
2019-03-09T07:45:54.034Z,90.10
2019-03-09T07:48:22.681Z,90.10
2019-03-09T07:50:53.534Z,90.00
2019-03-09T07:53:22.184Z,90.00
2019-03-09T07:55:53.544Z,89.80
2019-03-09T07:58:22.128Z,89.60
2019-03-09T08:00:50.650Z,89.30
2019-03-09T08:03:19.142Z,89.40
2019-03-09T08:05:48.085Z,88.90
2019-03-09T08:08:16.741Z,89.10
2019-03-09T08:10:45.231Z,89.30
2019-03-09T08:13:13.947Z,89.80
2019-03-09T08:15:42.524Z,90.10
2019-03-09T08:18:11.011Z,89.60
2019-03-09T08:20:40.081Z,89.70
2019-03-09T08:23:08.929Z,89.80
2019-03-09T08:25:37.482Z,90.00
2019-03-09T08:28:06.292Z,90.00
2019-03-09T08:30:34.826Z,90.10
2019-03-09T08:33:03.680Z,89.30
2019-03-09T08:35:41.362Z,89.40
2019-03-09T08:38:10.181Z,89.60
2019-03-09T08:40:38.958Z,89.80
2019-03-09T08:43:07.705Z,89.70
2019-03-09T08:45:36.762Z,89.90
2019-03-09T08:48:05.439Z,90.10
2019-03-09T08:50:34.691Z,90.00
2019-03-09T08:53:04.909Z,89.50
2019-03-09T08:55:33.458Z,88.80
2019-03-09T08:58:02.330Z,89.30
2019-03-09T09:00:38.238Z,89.40
2019-03-09T09:03:06.922Z,89.30
2019-03-09T09:05:35.689Z,89.10
2019-03-09T09:08:04.891Z,88.90
2019-03-09T09:10:44.172Z,88.60
2019-03-09T09:13:04.068Z,88.40
2019-03-09T09:15:36.613Z,88.20
2019-03-09T09:18:11.478Z,88.60
2019-03-09T09:20:35.382Z,88.10
2019-03-09T09:23:04.578Z,88.20
2019-03-09T09:25:33.448Z,88.00
2019-03-09T09:28:02.105Z,87.50
2019-03-09T09:30:33.096Z,88.20
2019-03-09T09:33:03.508Z,88.00
2019-03-09T09:35:33.464Z,87.40
2019-03-09T09:38:02.252Z,86.20
2019-03-09T09:40:32.494Z,87.50
2019-03-09T09:43:01.369Z,86.40
2019-03-09T09:45:30.139Z,87.00
2019-03-09T09:48:00.681Z,86.70
2019-03-09T09:50:32.452Z,86.10
2019-03-09T09:53:01.152Z,86.90
2019-03-09T09:55:29.786Z,85.70
2019-03-09T09:57:58.527Z,85.90
2019-03-09T10:00:43.891Z,85.80
2019-03-09T10:03:12.821Z,85.10
2019-03-09T10:05:41.590Z,86.10
2019-03-09T10:08:18.851Z,85.70
2019-03-09T10:10:43.291Z,85.10
2019-03-09T10:13:12.070Z,86.30
2019-03-09T10:15:41.041Z,85.20
2019-03-09T10:18:31.265Z,85.30
2019-03-09T10:20:59.923Z,84.20
2019-03-09T10:23:28.829Z,83.60
2019-03-09T10:25:57.766Z,84.40
2019-03-09T10:28:26.497Z,83.80
2019-03-09T10:30:59.793Z,82.10
2019-03-09T10:33:28.505Z,81.40
2019-03-09T10:35:58.449Z,80.30
2019-03-09T10:38:28.926Z,80.30
2019-03-09T10:40:57.825Z,80.90
2019-03-09T10:43:27.821Z,79.10
2019-03-09T10:45:59.387Z,78.80
2019-03-09T10:48:28.038Z,77.10
2019-03-09T10:50:57.139Z,77.00
2019-03-09T10:53:25.778Z,76.10
2019-03-09T10:55:54.511Z,76.30
2019-03-09T10:58:23.235Z,77.60
2019-03-09T11:00:52.137Z,77.20
2019-03-09T11:03:20.663Z,77.00
2019-03-09T11:05:49.676Z,77.20
2019-03-09T11:08:18.481Z,78.10
2019-03-09T11:10:47.105Z,78.00
2019-03-09T11:13:15.753Z,77.90
2019-03-09T11:15:44.482Z,77.40
2019-03-09T11:18:13.250Z,76.80
2019-03-09T11:20:43.638Z,75.90
2019-03-09T11:23:12.141Z,76.20
2019-03-09T11:25:40.720Z,75.30
2019-03-09T11:28:11.538Z,74.90
2019-03-09T11:30:40.180Z,75.80
2019-03-09T11:33:08.750Z,75.30
2019-03-09T11:35:39.984Z,76.30
2019-03-09T11:38:09.990Z,74.40
2019-03-09T11:40:40.403Z,75.90
2019-03-09T11:43:09.168Z,75.40
2019-03-09T11:45:37.714Z,76.20
2019-03-09T11:48:06.563Z,76.70
2019-03-09T11:50:35.158Z,77.40
2019-03-09T11:53:03.812Z,78.10
2019-03-09T11:55:32.390Z,78.50
2019-03-09T11:58:01.063Z,78.30
2019-03-09T12:00:33.933Z,79.50
2019-03-09T12:03:10.108Z,78.20
2019-03-09T12:05:38.794Z,77.90
2019-03-09T12:08:07.406Z,77.40
2019-03-09T12:14:10.892Z,79.40
2019-03-09T12:19:26.873Z,78.40
2019-03-09T12:22:04.728Z,77.10
2019-03-09T12:29:03.199Z,74.60
2019-03-09T12:34:52.397Z,74.40
2019-03-09T12:40:22.288Z,73.90
2019-03-09T12:46:07.638Z,73.30
2019-03-09T12:48:35.000Z,72.90
2019-03-09T12:51:08.621Z,72.90
2019-03-09T12:53:40.062Z,73.40
2019-03-09T12:56:15.656Z,74.10
2019-03-09T12:59:30.349Z,75.10
2019-03-09T13:01:59.257Z,74.40
2019-03-09T13:04:28.105Z,74.50
2019-03-09T13:06:59.875Z,75.00
2019-03-09T13:09:32.589Z,75.40
2019-03-09T13:12:49.538Z,75.50
2019-03-09T13:14:39.479Z,75.10
2019-03-09T13:17:23.341Z,75.50
2019-03-09T13:19:46.537Z,74.30
2019-03-09T13:22:17.636Z,74.90
2019-03-09T13:24:47.572Z,74.80
2019-03-09T13:27:28.743Z,73.70
2019-03-09T13:29:54.555Z,73.70
2019-03-09T13:32:20.547Z,73.80
2019-03-09T13:35:02.071Z,72.60
2019-03-09T13:37:29.536Z,73.30
2019-03-09T13:40:03.569Z,72.30
2019-03-09T13:42:39.502Z,72.30
2019-03-09T13:45:17.302Z,71.50
2019-03-09T13:47:45.248Z,71.20
2019-03-09T13:50:25.070Z,71.70
2019-03-09T13:53:00.145Z,72.90
2019-03-09T13:55:24.457Z,71.80
2019-03-09T13:58:04.848Z,71.30
2019-03-09T14:00:39.909Z,70.60
2019-03-09T14:03:24.729Z,71.20
2019-03-09T14:05:34.250Z,70.30
2019-03-09T14:08:15.811Z,70.80
2019-03-09T14:10:34.453Z,70.00
2019-03-09T14:13:10.992Z,70.40
2019-03-09T14:15:37.673Z,69.40
2019-03-09T14:18:18.534Z,69.90
2019-03-09T14:20:51.067Z,69.90
2019-03-09T14:23:23.154Z,69.50
2019-03-09T14:25:55.537Z,70.40
2019-03-09T14:28:25.467Z,70.80
2019-03-09T14:34:07.422Z,70.80
2019-03-09T14:36:39.436Z,70.70
2019-03-09T14:39:09.704Z,71.00
2019-03-09T14:42:49.238Z,71.00
2019-03-09T14:44:13.313Z,71.80
2019-03-09T14:46:55.793Z,71.90
2019-03-09T14:49:29.641Z,72.10
2019-03-09T14:52:14.003Z,72.50
2019-03-09T14:54:34.385Z,72.40
2019-03-09T14:59:46.305Z,73.00
2019-03-09T15:02:18.950Z,72.50
2019-03-09T15:07:32.598Z,73.10
2019-03-09T15:09:56.127Z,73.40
2019-03-09T15:12:57.103Z,73.50
2019-03-09T15:15:03.216Z,73.10
2019-03-09T15:20:04.623Z,72.40
2019-03-09T15:22:33.334Z,71.90
2019-03-09T15:25:03.894Z,72.20
2019-03-09T15:27:38.698Z,72.30
2019-03-09T15:30:13.922Z,72.70
2019-03-09T15:32:46.243Z,72.10
2019-03-09T15:35:30.767Z,72.40
2019-03-09T15:38:03.072Z,73.00
2019-03-09T15:40:27.416Z,72.60
2019-03-09T15:42:59.230Z,73.00
2019-03-09T15:45:32.598Z,72.70
2019-03-09T15:48:26.960Z,72.90
2019-03-09T15:50:42.791Z,74.10
2019-03-09T15:53:18.424Z,74.20
2019-03-09T15:55:47.584Z,74.60
2019-03-09T15:58:26.709Z,73.90
2019-03-09T16:00:51.498Z,74.30
2019-03-09T16:06:41.269Z,75.10
2019-03-09T16:14:45.443Z,75.70
2019-03-09T16:17:17.656Z,75.40
2019-03-09T16:24:00.740Z,75.00
2019-03-09T16:25:29.030Z,75.50
2019-03-09T16:30:52.784Z,75.60
2019-03-09T16:34:00.619Z,75.90
2019-03-09T16:56:34.096Z,77.80
2019-03-09T16:59:07.600Z,78.70
2019-03-09T18:16:59.281Z,79.00
2019-03-09T18:19:28.209Z,78.80
2019-03-09T18:22:14.158Z,78.70
2019-03-09T18:24:44.549Z,78.00
2019-03-09T18:27:21.291Z,78.30
2019-03-09T18:33:09.151Z,78.50
2019-03-09T18:36:05.876Z,78.70
2019-03-09T18:38:25.017Z,78.70
2019-03-09T18:41:30.077Z,79.00
2019-03-09T18:43:38.026Z,78.90
2019-03-09T18:46:06.696Z,78.90
2019-03-09T18:48:35.311Z,78.90
2019-03-09T18:51:03.970Z,78.80
2019-03-09T18:53:32.589Z,79.00
2019-03-09T18:56:01.114Z,79.10
2019-03-09T18:58:29.671Z,79.00
2019-03-09T19:00:58.256Z,79.30
2019-03-09T19:03:27.199Z,79.60
2019-03-09T19:05:55.954Z,79.80
2019-03-09T19:08:24.576Z,79.80
2019-03-09T19:10:54.563Z,80.60
2019-03-09T19:13:23.173Z,81.20
2019-03-09T19:15:51.813Z,81.20
2019-03-09T19:18:21.065Z,81.30
2019-03-09T19:20:49.804Z,81.50
2019-03-09T19:23:18.459Z,81.50
2019-03-09T19:25:54.008Z,81.40
2019-03-09T19:28:26.962Z,81.70
2019-03-09T19:30:55.640Z,81.60
2019-03-09T19:33:29.585Z,81.40
2019-03-09T19:35:58.622Z,81.30
2019-03-09T19:38:27.528Z,81.90
2019-03-09T19:40:56.083Z,81.20
2019-03-09T19:43:24.626Z,81.20
2019-03-09T19:45:53.164Z,80.70
2019-03-09T19:48:21.693Z,80.40
2019-03-09T19:50:50.322Z,80.40
2019-03-09T19:53:18.797Z,80.50
2019-03-09T19:55:51.956Z,80.60
2019-03-09T19:58:20.656Z,80.70
2019-03-09T20:00:49.158Z,80.30
2019-03-09T20:03:17.644Z,80.40
2019-03-09T20:05:46.223Z,80.10
2019-03-09T20:08:14.728Z,80.20
2019-03-09T20:10:43.351Z,80.30
2019-03-09T20:13:11.974Z,80.40
2019-03-09T20:15:40.508Z,80.40
2019-03-09T20:18:09.057Z,80.30
2019-03-09T20:20:37.692Z,80.20
2019-03-09T20:23:06.298Z,79.70
2019-03-09T20:25:35.983Z,79.30
2019-03-09T20:28:04.646Z,79.00
2019-03-09T20:30:33.311Z,78.60
2019-03-09T20:33:01.867Z,78.10
2019-03-09T20:35:30.423Z,77.80
2019-03-09T20:37:58.935Z,77.50
2019-03-09T20:40:27.476Z,77.60
2019-03-09T20:42:56.108Z,77.70
2019-03-09T20:45:24.793Z,77.50
2019-03-09T20:47:53.262Z,77.90
2019-03-09T20:50:23.382Z,77.90
2019-03-09T20:52:51.950Z,78.50
2019-03-09T20:55:20.745Z,78.80
2019-03-09T20:57:49.375Z,79.10
2019-03-09T21:00:21.813Z,79.10
2019-03-09T21:02:50.468Z,79.30
2019-03-09T21:05:19.121Z,79.20
2019-03-09T21:07:47.699Z,79.60
2019-03-09T21:10:18.598Z,79.80
2019-03-09T21:13:02.053Z,79.50
2019-03-09T21:15:30.697Z,78.80
2019-03-09T21:17:59.335Z,79.10
2019-03-09T21:20:31.768Z,78.60
2019-03-09T21:23:00.045Z,78.60
2019-03-09T21:25:29.904Z,78.20
2019-03-09T21:27:58.580Z,77.80
2019-03-09T21:30:27.153Z,77.10
2019-03-09T21:32:55.819Z,77.00
2019-03-09T21:35:24.500Z,76.30
2019-03-09T21:37:53.190Z,76.10
2019-03-09T21:40:21.844Z,76.10
2019-03-09T21:42:50.899Z,75.50
2019-03-09T21:45:19.676Z,75.20
2019-03-09T21:47:48.273Z,75.40
2019-03-09T21:50:18.732Z,74.90
2019-03-09T21:52:48.844Z,75.10
2019-03-09T21:55:19.409Z,75.20
2019-03-09T21:57:48.104Z,75.30
2019-03-09T22:00:26.174Z,75.30
2019-03-09T22:02:54.810Z,75.50
2019-03-09T22:05:23.389Z,76.00
2019-03-09T22:07:51.954Z,76.20
2019-03-09T22:10:20.655Z,76.80
2019-03-09T22:12:49.219Z,77.90
2019-03-09T22:15:18.411Z,77.20
2019-03-09T22:17:46.967Z,77.00
2019-03-09T22:20:16.124Z,77.70
2019-03-09T22:22:44.938Z,78.10
2019-03-09T22:25:15.737Z,78.70
2019-03-09T22:27:44.810Z,79.10
2019-03-09T22:30:18.636Z,79.30
2019-03-09T22:32:47.411Z,79.30
2019-03-09T22:35:16.013Z,79.40
2019-03-09T22:37:44.683Z,79.70
2019-03-09T22:40:20.189Z,80.40
2019-03-09T22:42:48.922Z,80.90
2019-03-09T22:45:17.479Z,81.30
2019-03-09T22:47:46.099Z,81.60
2019-03-09T22:50:26.463Z,81.70
2019-03-09T22:52:55.551Z,82.00
2019-03-09T22:55:24.979Z,81.80
2019-03-09T22:57:53.639Z,82.10
2019-03-09T23:00:26.572Z,82.20
2019-03-09T23:02:55.234Z,83.00
2019-03-09T23:05:24.198Z,82.50
2019-03-09T23:07:52.873Z,83.00
2019-03-09T23:10:28.535Z,82.80
2019-03-09T23:12:58.659Z,82.80
2019-03-09T23:15:27.295Z,83.40
2019-03-09T23:17:55.919Z,84.00
2019-03-09T23:20:24.696Z,84.20
2019-03-09T23:22:53.262Z,84.20
2019-03-09T23:25:22.038Z,84.20
2019-03-09T23:27:52.319Z,84.60
2019-03-09T23:30:21.905Z,84.10
2019-03-09T23:32:50.593Z,83.90
2019-03-09T23:35:19.282Z,84.00
2019-03-09T23:37:47.958Z,83.90
2019-03-09T23:40:24.306Z,83.30
2019-03-09T23:42:52.767Z,82.10
2019-03-09T23:45:26.553Z,82.70
2019-03-09T23:47:55.336Z,82.50
2019-03-09T23:50:24.031Z,82.30
2019-03-09T23:52:52.740Z,82.30
2019-03-09T23:55:23.001Z,82.10
2019-03-09T23:57:51.966Z,82.00
